Time;durP1;ratioP1;P1;durP2;ratioP2;P2;SDS_P1;SDS_P2;PMS_P1;PMS_P2;Temp;Humidity;BMP_temperature;BMP_pressure;BME280_temperature;BME280_humidity;BME280_pressure;Samples;Min_cycle;Max_cycle;Signal;HPM_P1;HPM_P2
2021/12/09 00:00:16;;;;;;;33.70;15.80;;;;;;;-3.58;74.47;100082.56;87707;1283;93560;-71
2021/12/09 00:02:45;;;;;;;28.90;15.00;;;;;;;-3.64;74.69;100079.83;87677;1285;79167;-61
2021/12/09 00:04:57;;;;;;;35.60;15.70;;;;;;;-3.70;74.83;100074.91;87735;1281;81418;-66
2021/12/09 00:07:06;;;;;;;30.70;14.60;;;;;;;-3.74;75.30;100075.24;87723;1283;98210;-62
2021/12/09 00:09:19;;;;;;;31.60;16.30;;;;;;;-3.78;75.43;100081.64;87745;1285;86534;-61
2021/12/09 00:11:29;;;;;;;32.60;15.50;;;;;;;-3.81;75.69;100079.09;87708;1285;95221;-72
2021/12/09 00:13:41;;;;;;;32.40;16.70;;;;;;;-3.79;75.63;100076.66;87746;1284;81710;-72
2021/12/09 00:15:55;;;;;;;34.90;14.70;;;;;;;-3.72;75.78;100074.20;87739;1283;81632;-61
2021/12/09 00:18:04;;;;;;;30.30;15.60;;;;;;;-3.65;75.70;100076.02;87701;1284;97400;-62
2021/12/09 00:20:18;;;;;;;29.60;15.00;;;;;;;-3.57;75.93;100082.14;87709;1283;89519;-62
2021/12/09 00:22:28;;;;;;;;;;;;;;;-3.49;75.97;100082.08;87741;1285;95659;-61
2021/12/09 00:24:38;;;;;;;30.00;14.20;;;;;;;-3.46;75.94;100085.40;87720;1287;78960;-61
2021/12/09 00:26:52;;;;;;;27.30;13.60;;;;;;;-3.45;75.93;100086.94;87752;1284;81588;-62
2021/12/09 00:29:00;;;;;;;;;;;;;;;-3.55;75.92;100087.97;87726;1285;97417;-69
2021/12/09 00:31:09;;;;;;;32.10;14.70;;;;;;;-3.66;76.17;100085.77;87792;1283;87746;-72
2021/12/09 00:33:20;;;;;;;42.00;19.10;;;;;;;-3.67;76.14;100089.18;87702;1284;95165;-72
2021/12/09 00:35:43;;;;;;;33.90;16.10;;;;;;;-3.70;76.15;100086.73;87723;1281;77402;-72
2021/12/09 00:37:55;;;;;;;31.20;15.10;;;;;;;-3.77;76.15;100088.25;87730;1288;81733;-62
2021/12/09 00:40:10;;;;;;;37.80;17.70;;;;;;;-3.82;76.21;100090.95;87753;1283;98662;-67
2021/12/09 00:42:24;;;;;;;38.80;17.10;;;;;;;-3.87;76.38;100091.84;87759;1285;87888;-72
2021/12/09 00:44:37;;;;;;;48.20;19.70;;;;;;;-3.90;76.64;100095.70;87741;1280;95041;-72
2021/12/09 00:46:49;;;;;;;37.00;16.50;;;;;;;-3.95;76.65;100098.34;87671;1283;81255;-72
2021/12/09 00:48:58;;;;;;;23.20;12.60;;;;;;;-3.95;76.84;100104.34;87724;1281;84165;-72
2021/12/09 00:51:10;;;;;;;32.00;16.10;;;;;;;-3.92;76.95;100101.70;87759;1285;97965;-71
2021/12/09 00:53:23;;;;;;;34.40;15.50;;;;;;;-3.84;76.98;100100.07;87740;1283;89197;-73
2021/12/09 00:55:32;;;;;;;38.70;16.90;;;;;;;-3.78;77.04;100102.05;87724;1281;93557;-72
2021/12/09 00:57:47;;;;;;;25.90;13.20;;;;;;;-3.72;77.10;100097.30;87773;1279;77222;-61
2021/12/09 00:59:58;;;;;;;25.00;12.40;;;;;;;-3.74;77.29;100097.58;87740;1285;81768;-64
2021/12/09 01:02:09;;;;;;;23.00;12.00;;;;;;;-3.81;77.45;100095.97;87720;1285;96960;-70
2021/12/09 01:04:19;;;;;;;24.20;13.70;;;;;;;-3.88;77.31;100098.02;87660;1285;89203;-72
2021/12/09 01:06:31;;;;;;;30.00;13.50;;;;;;;-3.88;77.38;100096.45;87692;1284;95024;-72
2021/12/09 01:08:41;;;;;;;22.30;11.70;;;;;;;-3.97;77.27;100100.23;87725;1289;79131;-72
2021/12/09 01:10:51;;;;;;;26.70;13.90;;;;;;;-4.01;77.38;100097.20;87760;1283;79659;-71
2021/12/09 01:13:03;;;;;;;25.60;13.00;;;;;;;-4.02;77.34;100098.83;87754;1285;97555;-71
2021/12/09 01:15:16;;;;;;;34.00;14.20;;;;;;;-4.05;77.28;100096.41;87737;1285;88349;-71
2021/12/09 01:17:28;;;;;;;38.10;16.80;;;;;;;-4.09;77.70;100097.07;87651;1283;93322;-72
2021/12/09 01:19:38;;;;;;;30.60;14.60;;;;;;;-4.08;77.64;100091.35;87693;1284;82202;-72
2021/12/09 01:21:48;;;;;;;40.80;17.40;;;;;;;-4.04;77.67;100093.52;87759;1285;79436;-71
2021/12/09 01:24:00;;;;;;;26.30;13.50;;;;;;;-3.97;77.51;100096.40;87742;1280;97955;-72
2021/12/09 01:26:12;;;;;;;20.30;11.00;;;;;;;-3.89;77.71;100102.14;87672;1285;89151;-62
2021/12/09 01:28:26;;;;;;;41.20;18.90;;;;;;;-3.81;77.58;100097.85;87468;1287;95445;-62
2021/12/09 01:30:35;;;;;;;;;;;;;;;-3.71;77.58;100097.73;87754;1279;76522;-61
2021/12/09 01:32:49;;;;;;;36.90;16.90;;;;;;;-3.66;77.70;100092.29;87683;1279;79653;-61
2021/12/09 01:34:58;;;;;;;35.80;17.50;;;;;;;-3.69;77.49;100092.84;87664;1284;97968;-62
2021/12/09 01:37:09;;;;;;;34.80;15.80;;;;;;;-3.77;77.68;100090.24;87747;1285;87522;-62
2021/12/09 01:39:20;;;;;;;32.20;15.40;;;;;;;-3.80;77.54;100083.08;87729;1285;95696;-62
2021/12/09 01:41:30;;;;;;;29.20;14.60;;;;;;;-3.81;77.56;100086.45;87747;1285;78853;-73
2021/12/09 01:43:39;;;;;;;29.30;14.60;;;;;;;-3.86;77.82;100085.79;87742;1285;80081;-71
2021/12/09 01:45:48;;;;;;;38.10;16.70;;;;;;;-3.90;77.51;100083.40;87757;1287;98582;-71
2021/12/09 01:47:58;;;;;;;22.70;12.00;;;;;;;-3.98;77.73;100081.66;87721;1285;88248;-73
2021/12/09 01:50:10;;;;;;;22.40;11.40;;;;;;;-4.03;77.57;100083.29;87718;1285;95181;-74
2021/12/09 01:52:19;;;;;;;27.40;14.00;;;;;;;-4.08;77.63;100072.90;87712;1288;80947;-72
2021/12/09 01:54:28;;;;;;;22.50;11.80;;;;;;;-4.04;77.67;100078.42;87777;1281;82248;-72
2021/12/09 01:56:38;;;;;;;32.20;15.90;;;;;;;-4.00;77.31;100073.89;87670;1281;97498;-72
2021/12/09 01:58:47;;;;;;;26.00;13.10;;;;;;;-3.93;77.52;100072.89;87767;1287;88851;-72
2021/12/09 02:00:56;;;;;;;22.80;12.20;;;;;;;-3.89;77.57;100069.59;87673;1285;94927;-61
2021/12/09 02:03:06;;;;;;;21.10;12.10;;;;;;;-3.83;77.58;100067.98;87669;1287;79110;-63
2021/12/09 02:05:17;;;;;;;26.10;14.70;;;;;;;-3.81;77.19;100071.14;87667;1284;80616;-61
2021/12/09 02:07:27;;;;;;;24.40;13.20;;;;;;;-3.83;77.25;100069.36;88009;1278;96260;-61
2021/12/09 02:09:36;;;;;;;24.30;12.20;;;;;;;-3.83;77.20;100068.31;88004;1281;89124;-61
2021/12/09 02:11:46;;;;;;;24.60;13.70;;;;;;;-3.87;76.96;100063.52;88002;1282;93415;-72
2021/12/09 02:13:59;;;;;;;26.40;14.70;;;;;;;-3.90;77.11;100061.09;87819;1282;80042;-73
2021/12/09 02:16:10;;;;;;;25.30;12.10;;;;;;;-3.96;76.84;100056.95;87985;1281;82356;-72
2021/12/09 02:18:23;;;;;;;25.10;14.10;;;;;;;-4.08;76.98;100061.26;88013;1281;98340;-73
2021/12/09 02:20:35;;;;;;;25.00;13.00;;;;;;;-4.11;77.04;100066.39;87870;1281;88630;-72
2021/12/09 02:22:48;;;;;;;29.20;15.40;;;;;;;-4.17;77.00;100066.13;88002;1281;94845;-60
2021/12/09 02:25:01;;;;;;;24.60;13.10;;;;;;;-4.21;77.09;100069.91;87879;1274;82265;-64
2021/12/09 02:27:13;;;;;;;24.30;12.80;;;;;;;-4.23;76.96;100070.20;88026;1278;82696;-71
2021/12/09 02:29:23;;;;;;;25.70;14.00;;;;;;;-4.23;77.14;100070.02;87865;1281;99700;-71
2021/12/09 02:31:33;;;;;;;26.80;13.90;;;;;;;-4.20;77.19;100065.08;88028;1281;88599;-71
2021/12/09 02:33:43;;;;;;;27.40;14.80;;;;;;;-4.13;77.20;100062.84;87877;1281;95619;-72
2021/12/09 02:35:55;;;;;;;23.70;12.90;;;;;;;-4.04;77.14;100060.60;87895;1285;78974;-61
2021/12/09 02:38:04;;;;;;;25.60;13.10;;;;;;;-3.93;77.26;100059.55;87888;1281;80614;-62
2021/12/09 02:40:16;;;;;;;27.60;14.10;;;;;;;-3.91;77.34;100054.48;88008;1282;97458;-61
2021/12/09 02:42:26;;;;;;;24.50;12.80;;;;;;;-3.92;77.07;100049.40;87914;1279;88754;-72
2021/12/09 02:44:35;;;;;;;25.20;13.30;;;;;;;-3.95;77.31;100042.28;88007;1285;95119;-73
2021/12/09 02:46:45;;;;;;;27.00;13.80;;;;;;;-3.95;77.02;100034.35;88022;1282;78371;-61
2021/12/09 02:48:55;;;;;;;29.20;14.50;;;;;;;-3.95;77.41;100033.46;88019;1281;81916;-61
2021/12/09 02:51:08;;;;;;;25.50;13.50;;;;;;;-4.01;77.37;100030.52;88021;1281;99450;-72
2021/12/09 02:53:20;;;;;;;26.40;12.90;;;;;;;-4.06;77.19;100026.83;88025;1282;87652;-72
2021/12/09 02:55:30;;;;;;;33.30;16.10;;;;;;;-4.16;77.37;100023.70;88004;1282;92270;-72
2021/12/09 02:57:38;;;;;;;28.10;13.80;;;;;;;-4.22;77.53;100025.66;88021;1280;77721;-72
2021/12/09 02:59:51;;;;;;;26.90;14.10;;;;;;;-4.26;77.50;100022.80;88034;1282;83040;-71
2021/12/09 03:02:06;;;;;;;29.30;14.90;;;;;;;-4.27;77.73;100019.16;87853;1275;96490;-61
2021/12/09 03:04:16;;;;;;;28.50;14.30;;;;;;;-4.25;77.82;100018.84;88044;1282;87278;-60
2021/12/09 03:06:34;;;;;;;29.30;15.50;;;;;;;-4.27;77.92;100023.89;87999;1281;95097;-61
2021/12/09 03:08:47;;;;;;;27.30;13.10;;;;;;;-4.24;78.16;100025.44;88028;1282;76237;-62
2021/12/09 03:10:56;;;;;;;25.70;14.70;;;;;;;-4.23;78.28;100031.84;87908;1281;79495;-60
2021/12/09 03:13:10;;;;;;;26.10;14.70;;;;;;;-4.19;78.20;100024.06;87910;1278;98352;-61
2021/12/09 03:15:20;;;;;;;27.80;13.50;;;;;;;-4.16;78.11;100018.95;87899;1278;89148;-61
2021/12/09 03:17:35;;;;;;;26.80;13.80;;;;;;;-4.14;78.20;100015.81;87875;1281;92396;-71
2021/12/09 03:19:49;;;;;;;26.40;14.80;;;;;;;-4.13;78.15;100015.58;87896;1281;79477;-72
2021/12/09 03:21:58;;;;;;;28.10;14.20;;;;;;;-4.14;78.16;100021.92;88016;1285;81803;-61
2021/12/09 03:24:10;;;;;;;27.20;14.70;;;;;;;-4.23;78.27;100020.08;87864;1281;98451;-64
2021/12/09 03:26:28;;;;;;;28.30;14.50;;;;;;;-4.30;78.42;100017.96;88003;1282;89030;-72
2021/12/09 03:28:42;;;;;;;29.80;14.90;;;;;;;-4.35;78.60;100021.80;87999;1281;95651;-72
2021/12/09 03:30:51;;;;;;;29.00;15.00;;;;;;;-4.37;78.71;100023.68;88000;1282;79330;-62
2021/12/09 03:33:03;;;;;;;24.60;14.30;;;;;;;-4.36;78.80;100029.30;87776;1285;81037;-62
2021/12/09 03:35:14;;;;;;;26.60;12.90;;;;;;;-4.32;78.77;100033.39;88028;1281;98883;-61
2021/12/09 03:37:27;;;;;;;25.10;13.70;;;;;;;-4.25;78.70;100029.19;88029;1281;88263;-61
2021/12/09 03:39:42;;;;;;;21.40;12.00;;;;;;;-4.18;78.73;100026.27;88034;1282;95041;-62
2021/12/09 03:41:56;;;;;;;23.70;12.40;;;;;;;-4.16;78.69;100023.16;87907;1282;77272;-71
2021/12/09 03:44:05;;;;;;;25.50;13.60;;;;;;;-4.13;78.81;100020.48;88065;1281;80907;-72
2021/12/09 03:46:15;;;;;;;24.70;13.10;;;;;;;-4.11;78.64;100020.87;87896;1281;98643;-60
2021/12/09 03:48:25;;;;;;;25.10;13.50;;;;;;;-4.09;78.47;100021.80;88026;1282;89056;-62
2021/12/09 03:50:38;;;;;;;21.80;12.50;;;;;;;-4.12;78.58;100022.90;88032;1282;95033;-61
2021/12/09 03:52:50;;;;;;;22.70;12.60;;;;;;;-4.18;78.60;100026.27;88024;1282;78662;-61
2021/12/09 03:55:02;;;;;;;28.50;14.10;;;;;;;-4.22;78.51;100028.13;88047;1281;79631;-61
2021/12/09 03:57:12;;;;;;;26.60;13.80;;;;;;;-4.26;78.80;100029.85;88046;1277;98924;-60
2021/12/09 03:59:22;;;;;;;27.50;15.10;;;;;;;-4.31;78.88;100030.65;88053;1285;87757;-61
2021/12/09 04:01:36;;;;;;;27.70;13.20;;;;;;;-4.31;79.01;100025.39;88024;1285;95041;-62
2021/12/09 04:03:49;;;;;;;26.70;13.90;;;;;;;-4.25;78.76;100027.09;88006;1282;79501;-61
2021/12/09 04:06:01;;;;;;;25.90;13.20;;;;;;;-4.20;78.70;100025.18;88049;1285;83181;-70
2021/12/09 04:08:10;;;;;;;25.30;13.60;;;;;;;-4.11;78.88;100023.89;88029;1282;99047;-75
2021/12/09 04:10:22;;;;;;;24.00;13.00;;;;;;;-4.09;78.93;100020.56;88023;1282;89561;-73
2021/12/09 04:12:34;;;;;;;24.80;13.70;;;;;;;-4.10;78.80;100019.73;88002;1281;95274;-71
2021/12/09 04:14:43;;;;;;;23.50;12.90;;;;;;;-4.07;78.42;100022.89;88010;1282;78070;-72
2021/12/09 04:16:56;;;;;;;25.70;13.60;;;;;;;-4.09;78.56;100020.41;88042;1282;83395;-63
2021/12/09 04:19:11;;;;;;;19.40;10.00;;;;;;;-4.16;78.62;100015.44;88021;1282;97387;-63
2021/12/09 04:21:21;;;;;;;25.70;14.00;;;;;;;-4.21;78.75;100022.97;88036;1282;87942;-75
2021/12/09 04:23:33;;;;;;;22.70;12.20;;;;;;;-4.21;78.59;100030.48;88018;1281;93504;-75
2021/12/09 04:25:46;;;;;;;26.10;14.30;;;;;;;-4.23;78.40;100033.13;88024;1278;79311;-76
2021/12/09 04:27:56;;;;;;;24.70;13.10;;;;;;;-4.27;78.65;100039.55;88038;1281;81232;-63
2021/12/09 04:30:10;;;;;;;25.90;13.60;;;;;;;-4.26;78.48;100039.27;88024;1281;99488;-64
2021/12/09 04:32:17;;;;;;;;;;;;;;;-4.22;78.56;100038.67;88036;1282;88382;-74
2021/12/09 04:34:27;;;;;;;26.20;13.00;;;;;;;-4.24;78.63;100042.82;87800;1279;95330;-73
2021/12/09 04:36:39;;;;;;;25.70;12.40;;;;;;;-4.20;78.69;100043.77;87997;1281;78792;-74
2021/12/09 04:38:49;;;;;;;18.80;10.90;;;;;;;-4.09;78.58;100046.08;87854;1281;80338;-74
2021/12/09 04:41:01;;;;;;;19.90;11.50;;;;;;;-4.03;78.53;100046.89;87986;1282;98931;-73
2021/12/09 04:43:11;;;;;;;22.80;11.40;;;;;;;-4.00;78.63;100050.16;88036;1281;89480;-73
2021/12/09 04:45:24;;;;;;;21.00;10.60;;;;;;;-4.03;78.46;100053.39;88028;1282;94992;-73
2021/12/09 04:47:37;;;;;;;19.30;11.10;;;;;;;-4.02;78.31;100053.96;88005;1285;77210;-73
2021/12/09 04:49:47;;;;;;;21.10;11.30;;;;;;;-4.01;78.27;100054.80;87871;1281;81145;-73
2021/12/09 04:51:57;;;;;;;19.60;10.10;;;;;;;-4.02;78.26;100058.20;88055;1282;98392;-62
2021/12/09 04:54:10;;;;;;;19.90;10.30;;;;;;;-4.08;78.07;100058.48;88047;1282;89011;-62
2021/12/09 04:56:23;;;;;;;21.40;12.40;;;;;;;-4.13;78.22;100056.87;88002;1278;94270;-62
2021/12/09 04:58:33;;;;;;;21.00;10.00;;;;;;;-4.12;78.24;100048.36;88035;1282;79636;-63
2021/12/09 05:00:48;;;;;;;20.00;11.30;;;;;;;-4.15;78.23;100046.98;88039;1273;79263;-63
2021/12/09 05:03:04;;;;;;;23.80;11.60;;;;;;;-4.15;78.19;100044.36;88004;1282;98855;-61
2021/12/09 05:05:15;;;;;;;21.90;11.70;;;;;;;-4.17;78.17;100054.67;88051;1282;89174;-61
2021/12/09 05:07:27;;;;;;;23.60;12.00;;;;;;;-4.18;78.36;100056.52;88013;1281;93495;-75
2021/12/09 05:09:39;;;;;;;22.70;12.10;;;;;;;-4.15;78.33;100059.45;87749;1288;81468;-75
2021/12/09 05:11:49;;;;;;;20.40;10.10;;;;;;;-4.13;78.28;100059.31;88026;1281;80935;-62
2021/12/09 05:14:01;;;;;;;21.00;11.40;;;;;;;-4.08;78.38;100061.30;87882;1285;98120;-62
2021/12/09 05:16:21;;;;;;;16.60;9.20;;;;;;;-4.03;78.27;100060.02;88056;1280;87652;-74
2021/12/09 05:18:33;;;;;;;18.30;10.90;;;;;;;-3.98;78.33;100059.34;87833;1282;274307;-73
2021/12/09 05:20:43;;;;;;;17.40;10.60;;;;;;;-4.01;78.18;100056.73;87897;1281;77123;-74
2021/12/09 05:22:52;;;;;;;16.90;9.80;;;;;;;-3.99;78.29;100050.10;88104;1285;81657;-75
2021/12/09 05:25:02;;;;;;;18.20;10.30;;;;;;;-3.98;78.15;100048.42;87863;1285;98950;-73
2021/12/09 05:27:15;;;;;;;16.70;10.40;;;;;;;-4.00;78.11;100054.41;88005;1282;89056;-62
2021/12/09 05:29:30;;;;;;;18.10;10.20;;;;;;;-4.10;78.15;100056.83;88039;1282;95449;-62
2021/12/09 05:34:27;;;;;;;23.40;12.50;;;;;;;-4.19;78.37;100051.61;87466;1288;82126;-62
2021/12/09 05:36:37;;;;;;;17.40;9.60;;;;;;;-4.18;78.43;100053.33;87482;1284;98880;-63
2021/12/09 05:38:49;;;;;;;21.00;12.50;;;;;;;-4.19;78.37;100055.54;87479;1288;87768;-62
2021/12/09 05:41:01;;;;;;;22.70;11.40;;;;;;;-4.13;78.29;100048.08;87483;1287;95009;-73
2021/12/09 05:43:18;;;;;;;19.20;11.50;;;;;;;-4.10;78.66;100052.24;87521;1282;78657;-73
2021/12/09 05:45:28;;;;;;;18.00;10.90;;;;;;;-4.01;78.54;100048.64;87566;1284;80597;-74
2021/12/09 05:47:39;;;;;;;18.50;10.80;;;;;;;-3.91;78.43;100050.73;87484;1289;98348;-62
2021/12/09 05:49:53;;;;;;;17.60;11.00;;;;;;;-3.85;78.55;100049.27;87726;1285;89274;-61
2021/12/09 05:52:02;;;;;;;18.20;11.50;;;;;;;-3.83;78.42;100050.88;87860;1285;95390;-71
2021/12/09 05:54:14;;;;;;;17.90;10.80;;;;;;;-3.84;78.28;100057.45;87879;1281;79233;-74
2021/12/09 05:56:27;;;;;;;18.80;10.50;;;;;;;-3.85;78.28;100066.00;87894;1281;80777;-72
2021/12/09 05:58:37;;;;;;;21.00;13.20;;;;;;;-3.92;78.32;100069.48;88043;1282;98632;-74
2021/12/09 06:00:47;;;;;;;21.60;12.20;;;;;;;-3.95;78.17;100074.77;88041;1282;89161;-68
2021/12/09 06:02:56;;;;;;;22.40;11.90;;;;;;;-4.00;78.23;100072.51;88031;1281;95120;-70
2021/12/09 06:05:06;;;;;;;19.80;11.30;;;;;;;-4.05;78.46;100069.70;87993;1285;79932;-69
2021/12/09 06:07:16;;;;;;;20.70;12.70;;;;;;;-4.07;78.25;100060.86;88062;1279;81475;-69
2021/12/09 06:09:30;;;;;;;24.40;11.90;;;;;;;-4.02;78.59;100050.88;88040;1281;98961;-69
2021/12/09 06:11:46;;;;;;;21.80;12.70;;;;;;;-3.99;78.36;100048.53;88054;1285;88415;-69
2021/12/09 06:13:55;;;;;;;20.40;12.20;;;;;;;-3.97;78.78;100052.08;87988;1281;95080;-68
2021/12/09 06:16:10;;;;;;;22.00;12.40;;;;;;;-3.94;78.84;100053.93;88043;1282;78941;-61
2021/12/09 06:18:22;;;;;;;21.00;12.00;;;;;;;-3.88;78.77;100053.91;88051;1281;81499;-61
2021/12/09 06:20:35;;;;;;;20.30;11.00;;;;;;;-3.81;78.58;100048.25;88032;1282;98799;-61
2021/12/09 06:22:48;;;;;;;20.10;11.50;;;;;;;-3.78;78.66;100047.89;88039;1286;88064;-62
2021/12/09 06:24:58;;;;;;;21.90;11.70;;;;;;;-3.81;78.42;100051.10;88048;1285;94633;-61
2021/12/09 06:27:08;;;;;;;22.90;11.70;;;;;;;-3.83;78.51;100047.38;87999;1280;77839;-65
2021/12/09 06:29:17;;;;;;;21.70;12.30;;;;;;;-3.83;78.57;100050.05;88075;1281;80462;-66
2021/12/09 06:31:27;;;;;;;20.90;12.10;;;;;;;-3.85;78.39;100050.15;88056;1282;97960;-62
2021/12/09 06:33:39;;;;;;;22.10;12.40;;;;;;;-3.88;78.50;100042.14;88025;1279;88463;-61
2021/12/09 06:35:52;;;;;;;22.40;12.20;;;;;;;-3.91;78.71;100038.08;87748;1285;95344;-65
2021/12/09 06:38:05;;;;;;;21.80;12.20;;;;;;;-3.93;78.61;100047.06;88048;1282;82329;-67
2021/12/09 06:40:20;;;;;;;23.80;13.20;;;;;;;-3.96;78.83;100042.66;88052;1281;82358;-67
2021/12/09 06:42:30;;;;;;;21.70;12.50;;;;;;;-3.91;78.80;100051.98;87877;1281;98083;-66
2021/12/09 06:44:40;;;;;;;22.40;12.60;;;;;;;-3.88;78.85;100050.36;88045;1285;86354;-65
2021/12/09 06:46:50;;;;;;;19.50;11.10;;;;;;;-3.84;79.06;100053.41;88058;1282;95422;-65
2021/12/09 06:49:01;;;;;;;22.70;11.90;;;;;;;-3.82;79.11;100063.84;88012;1281;78913;-69
2021/12/09 06:51:11;;;;;;;21.30;12.30;;;;;;;-3.78;79.09;100060.95;88062;1282;80211;-70
2021/12/09 06:53:20;;;;;;;100.40;48.80;;;;;;;-3.78;79.16;100060.77;88026;1282;99279;-68
2021/12/09 06:55:30;;;;;;;24.40;13.10;;;;;;;-3.80;79.20;100064.04;88002;1285;87909;-69
2021/12/09 06:57:42;;;;;;;21.60;12.40;;;;;;;-3.82;79.10;100068.21;88030;1281;94493;-61
2021/12/09 06:59:53;;;;;;;19.60;11.20;;;;;;;-3.84;79.13;100075.03;87641;1284;79740;-61
2021/12/09 07:02:03;;;;;;;23.40;13.70;;;;;;;-3.87;79.08;100070.73;87887;1285;82371;-69
2021/12/09 07:04:13;;;;;;;29.80;17.80;;;;;;;-3.87;79.08;100076.16;88021;1273;96696;-71
2021/12/09 07:06:23;;;;;;;24.40;13.70;;;;;;;-3.86;79.43;100066.25;88061;1281;89027;-70
2021/12/09 07:08:38;;;;;;;23.30;13.40;;;;;;;-3.85;79.36;100067.79;88036;1278;94343;-69
2021/12/09 07:10:48;;;;;;;24.20;12.60;;;;;;;-3.81;79.38;100077.16;88033;1282;80938;-63
2021/12/09 07:13:03;;;;;;;22.30;12.40;;;;;;;-3.80;79.26;100083.73;88041;1281;80601;-62
2021/12/09 07:15:15;;;;;;;24.50;12.80;;;;;;;-3.74;79.36;100079.08;87916;1285;97394;-63
2021/12/09 07:17:28;;;;;;;20.20;11.90;;;;;;;-3.65;79.42;100077.41;88055;1278;87284;-61
2021/12/09 07:19:40;;;;;;;20.40;12.90;;;;;;;-3.61;79.26;100077.48;88017;1285;93381;-69
2021/12/09 07:21:53;;;;;;;23.40;14.20;;;;;;;-3.54;79.30;100078.05;87991;1282;79307;-70
2021/12/09 07:24:06;;;;;;;26.00;13.80;;;;;;;-3.49;78.99;100077.89;88042;1282;82440;-69
2021/12/09 07:26:18;;;;;;;23.30;13.00;;;;;;;-3.49;79.07;100074.86;88044;1285;98168;-61
2021/12/09 07:28:32;;;;;;;30.60;17.10;;;;;;;-3.49;78.86;100063.80;88003;1283;88709;-63
2021/12/09 07:30:45;;;;;;;22.40;13.40;;;;;;;-3.54;79.13;100060.83;88018;1282;92804;-61
2021/12/09 07:32:54;;;;;;;18.10;9.60;;;;;;;-3.60;79.11;100064.02;88023;1285;76910;-61
2021/12/09 07:35:09;;;;;;;23.00;13.10;;;;;;;-3.68;79.36;100070.58;87903;1282;81152;-61
2021/12/09 07:37:18;;;;;;;29.40;15.10;;;;;;;-3.66;79.03;100071.88;87908;1286;98550;-69
2021/12/09 07:39:31;;;;;;;22.00;11.20;;;;;;;-3.60;79.15;100074.78;88011;1283;89061;-70
2021/12/09 07:41:43;;;;;;;24.10;12.90;;;;;;;-3.60;79.23;100077.70;88013;1285;93267;-72
2021/12/09 07:43:52;;;;;;;23.60;12.40;;;;;;;-3.51;79.22;100079.63;87859;1283;78346;-70
2021/12/09 07:46:04;;;;;;;22.20;13.00;;;;;;;-3.40;79.23;100084.63;87918;1286;80057;-61
2021/12/09 07:48:14;;;;;;;23.30;13.40;;;;;;;-3.37;78.87;100086.14;87906;1282;98724;-63
2021/12/09 07:50:31;;;;;;;20.70;12.60;;;;;;;-3.34;79.28;100080.29;87920;1281;87084;-61
2021/12/09 07:52:41;;;;;;;24.00;13.10;;;;;;;-3.36;79.15;100086.60;87882;1285;94511;-63
2021/12/09 07:54:50;;;;;;;23.90;13.40;;;;;;;-3.35;79.31;100082.45;88025;1283;77632;-63
2021/12/09 07:57:01;;;;;;;22.70;12.80;;;;;;;-3.32;79.07;100091.05;87949;1281;82553;-64
2021/12/09 07:59:11;;;;;;;25.30;14.50;;;;;;;-3.33;78.90;100084.43;88001;1285;97632;-62
2021/12/09 08:01:24;;;;;;;23.00;13.50;;;;;;;-3.35;78.98;100087.08;87980;1282;88673;-72
2021/12/09 08:03:35;;;;;;;20.90;12.30;;;;;;;-3.37;79.06;100087.41;87994;1281;95403;-74
2021/12/09 08:05:55;;;;;;;21.60;12.70;;;;;;;-3.44;79.29;100080.88;88053;1285;79119;-63
2021/12/09 08:08:09;;;;;;;25.50;13.60;;;;;;;-3.48;79.14;100079.41;88031;1281;82252;-64
2021/12/09 08:10:24;;;;;;;23.70;13.70;;;;;;;-3.46;79.47;100070.79;88002;1285;98371;-62
2021/12/09 08:12:34;;;;;;;24.40;12.80;;;;;;;-3.40;79.46;100061.34;87997;1282;87626;-71
2021/12/09 08:14:49;;;;;;;19.90;11.70;;;;;;;-3.35;79.42;100061.70;88037;1281;94182;-71
2021/12/09 08:17:10;;;;;;;24.80;13.70;;;;;;;-3.30;79.59;100063.79;88013;1283;78236;-63
2021/12/09 08:19:23;;;;;;;23.50;13.50;;;;;;;-3.24;79.59;100062.31;88034;1282;83189;-62
2021/12/09 08:21:38;;;;;;;26.70;13.70;;;;;;;-3.14;79.46;100057.33;88010;1285;98819;-71
2021/12/09 08:23:49;;;;;;;;;;;;;;;-3.10;79.13;100061.64;88030;1282;88956;-72
2021/12/09 08:26:01;;;;;;;25.30;13.80;;;;;;;-3.12;79.32;100060.92;87880;1285;94061;-64
2021/12/09 08:28:11;;;;;;;21.40;12.70;;;;;;;-3.12;79.10;100060.54;88021;1281;78810;-63
2021/12/09 08:30:27;;;;;;;24.00;14.60;;;;;;;-3.14;79.36;100055.08;88033;1281;82937;-65
2021/12/09 08:32:41;;;;;;;25.40;14.10;;;;;;;-3.11;79.35;100051.67;87999;1282;99239;-72
2021/12/09 08:34:55;;;;;;;27.00;13.80;;;;;;;-3.07;79.18;100057.52;87914;1285;89399;-71
2021/12/09 08:37:08;;;;;;;24.00;13.60;;;;;;;-3.01;79.37;100058.69;88013;1283;95011;-73
2021/12/09 08:39:20;;;;;;;25.80;13.90;;;;;;;-2.96;79.32;100067.32;87994;1281;78982;-72
2021/12/09 08:41:31;;;;;;;21.60;13.50;;;;;;;-2.89;79.39;100069.77;87764;1286;80771;-73
2021/12/09 08:43:41;;;;;;;21.90;12.80;;;;;;;-2.83;79.40;100077.95;88020;1281;98731;-71
2021/12/09 08:45:53;;;;;;;20.70;11.90;;;;;;;-2.77;79.33;100087.05;88035;1281;88376;-63
2021/12/09 08:48:02;;;;;;;19.90;12.90;;;;;;;-2.71;79.36;100084.85;87869;1283;93551;-61
2021/12/09 08:50:17;;;;;;;24.30;12.90;;;;;;;-2.68;79.14;100086.16;87897;1282;79254;-61
2021/12/09 08:52:26;;;;;;;20.50;12.90;;;;;;;-2.78;79.21;100093.23;87681;1284;83896;-61
2021/12/09 08:54:35;;;;;;;24.10;14.20;;;;;;;-2.75;79.12;100098.14;88022;1285;98451;-61
2021/12/09 08:56:50;;;;;;;22.10;13.00;;;;;;;-2.77;79.22;100099.03;88049;1285;88596;-70
2021/12/09 08:58:59;;;;;;;23.70;13.90;;;;;;;-2.78;79.02;100101.20;87986;1281;94855;-71
2021/12/09 09:01:15;;;;;;;26.20;14.00;;;;;;;-2.73;78.92;100099.42;88004;1286;80625;-69
2021/12/09 09:03:29;;;;;;;23.00;13.80;;;;;;;-2.70;79.11;100101.09;88027;1280;80651;-61
2021/12/09 09:05:44;;;;;;;22.80;14.10;;;;;;;-2.66;79.20;100095.67;88030;1285;99092;-61
2021/12/09 09:07:56;;;;;;;25.80;15.00;;;;;;;-2.60;79.10;100090.86;88019;1281;88927;-61
2021/12/09 09:10:07;;;;;;;22.80;13.70;;;;;;;-2.49;79.06;100084.36;87876;1285;94652;-62
2021/12/09 09:12:19;;;;;;;24.80;13.90;;;;;;;-2.37;78.98;100074.50;88012;1282;79000;-61
2021/12/09 09:14:31;;;;;;;23.20;13.40;;;;;;;-2.30;79.09;100067.99;88023;1281;82347;-61
2021/12/09 09:16:43;;;;;;;22.40;14.20;;;;;;;-2.25;79.25;100071.48;88069;1283;99003;-62
2021/12/09 09:18:57;;;;;;;22.60;13.90;;;;;;;-2.22;79.06;100078.14;88010;1285;87030;-62
2021/12/09 09:21:08;;;;;;;24.90;14.20;;;;;;;-2.20;79.02;100074.45;87905;1284;93890;-61
2021/12/09 09:23:23;;;;;;;25.70;15.70;;;;;;;-2.20;78.61;100080.02;88011;1285;77641;-61
2021/12/09 09:25:36;;;;;;;25.00;15.40;;;;;;;-2.20;78.79;100087.68;88027;1285;82799;-63
2021/12/09 09:27:48;;;;;;;24.20;15.30;;;;;;;-2.19;78.81;100077.91;88021;1282;96925;-61
2021/12/09 09:29:57;;;;;;;23.50;14.50;;;;;;;-2.20;78.69;100089.58;88024;1279;88442;-61
2021/12/09 09:32:12;;;;;;;26.40;15.10;;;;;;;-2.32;78.52;100094.93;87986;1280;95664;-69
2021/12/09 09:34:22;;;;;;;25.80;14.60;;;;;;;-2.38;78.89;100105.39;88001;1285;80594;-71
2021/12/09 09:36:39;;;;;;;21.80;14.30;;;;;;;-2.36;78.94;100100.33;88009;1286;81129;-62
2021/12/09 09:38:56;;;;;;;24.50;13.70;;;;;;;-2.31;79.04;100093.08;88029;1282;98511;-63
2021/12/09 09:41:15;;;;;;;23.80;15.30;;;;;;;-2.37;78.76;100084.36;88016;1283;88314;-70
2021/12/09 09:43:30;;;;;;;23.90;13.50;;;;;;;-2.38;79.00;100083.00;88044;1285;93360;-71
2021/12/09 09:45:42;;;;;;;24.40;14.40;;;;;;;-2.37;79.32;100075.03;87752;1276;77256;-71
2021/12/09 09:47:52;;;;;;;26.40;15.80;;;;;;;-2.36;79.05;100077.20;88037;1282;80458;-62
2021/12/09 09:50:09;;;;;;;25.00;15.00;;;;;;;-2.33;78.91;100077.21;88007;1285;98954;-65
2021/12/09 09:52:19;;;;;;;24.80;14.40;;;;;;;-2.30;79.07;100073.29;88035;1281;88144;-62
2021/12/09 09:54:28;;;;;;;27.50;15.30;;;;;;;-2.30;79.18;100073.45;88036;1284;95214;-61
2021/12/09 09:56:41;;;;;;;27.10;16.50;;;;;;;-2.35;79.32;100071.86;87994;1286;80174;-61
2021/12/09 09:58:57;;;;;;;28.80;16.80;;;;;;;-2.38;79.22;100070.84;87858;1288;81707;-62
2021/12/09 10:01:07;;;;;;;25.40;15.80;;;;;;;-2.42;79.23;100071.13;88018;1282;98348;-69
2021/12/09 10:03:19;;;;;;;24.20;14.20;;;;;;;-2.35;79.34;100063.64;88045;1285;88555;-70